createdAt,value
2022-12-07T00:00:16.140Z,80.32
2022-12-07T00:02:49.464Z,80.34
2022-12-07T00:05:02.752Z,80.29
2022-12-07T00:07:16.117Z,80.51
2022-12-07T00:09:29.543Z,80.55
2022-12-07T00:11:42.759Z,80.61
2022-12-07T00:13:59.313Z,80.68
2022-12-07T00:16:15.061Z,80.86
2022-12-07T00:18:28.427Z,80.93
2022-12-07T00:20:44.964Z,81.23
2022-12-07T00:22:59.687Z,81.30
2022-12-07T00:25:14.886Z,81.52
2022-12-07T00:27:28.243Z,81.35
2022-12-07T00:29:41.673Z,81.36
2022-12-07T00:31:55.264Z,81.53
2022-12-07T00:34:08.892Z,81.45
2022-12-07T00:36:27.040Z,81.60
2022-12-07T00:38:42.424Z,81.58
2022-12-07T00:41:03.887Z,81.62
2022-12-07T00:43:17.284Z,81.66
2022-12-07T00:45:30.793Z,81.84
2022-12-07T00:47:44.271Z,81.88
2022-12-07T00:49:57.762Z,81.97
2022-12-07T00:52:11.292Z,82.01
2022-12-07T00:54:24.641Z,82.06
2022-12-07T00:56:38.115Z,82.40
2022-12-07T00:58:55.873Z,82.60
2022-12-07T01:01:11.579Z,82.73
2022-12-07T01:03:25.097Z,82.60
2022-12-07T01:05:38.543Z,82.64
2022-12-07T01:07:51.852Z,82.83
2022-12-07T01:10:05.195Z,82.97
2022-12-07T01:12:18.365Z,83.00
2022-12-07T01:14:31.692Z,83.07
2022-12-07T01:16:45.944Z,83.31
2022-12-07T01:19:00.229Z,83.54
2022-12-07T01:21:16.335Z,83.64
2022-12-07T01:23:29.602Z,83.76
2022-12-07T01:25:42.990Z,83.71
2022-12-07T01:27:56.580Z,83.93
2022-12-07T01:30:11.356Z,84.14
2022-12-07T01:32:24.533Z,84.31
2022-12-07T01:34:36.887Z,84.58
2022-12-07T01:36:50.118Z,84.54
2022-12-07T01:39:05.270Z,84.70
2022-12-07T01:41:19.678Z,84.80
2022-12-07T01:43:35.260Z,84.63
2022-12-07T01:45:49.331Z,84.53
2022-12-07T01:48:04.222Z,84.57
2022-12-07T01:50:18.150Z,84.64
2022-12-07T01:52:34.525Z,84.51
2022-12-07T01:54:48.939Z,84.70
2022-12-07T01:57:03.876Z,84.86
2022-12-07T01:59:17.936Z,84.74
2022-12-07T02:01:31.528Z,84.98
2022-12-07T02:03:47.385Z,85.15
2022-12-07T02:06:01.709Z,85.19
2022-12-07T02:08:16.828Z,85.16
2022-12-07T02:10:32.345Z,85.40
2022-12-07T02:12:47.126Z,85.45
2022-12-07T02:15:00.595Z,85.56
2022-12-07T02:17:25.437Z,85.69
2022-12-07T02:20:11.210Z,85.75
2022-12-07T02:22:43.717Z,85.67
2022-12-07T02:25:07.006Z,85.60
2022-12-07T02:27:50.023Z,85.80
2022-12-07T02:30:07.524Z,85.83
2022-12-07T02:32:25.169Z,86.00
2022-12-07T02:34:46.032Z,85.91
2022-12-07T02:37:06.403Z,85.97
2022-12-07T02:39:24.748Z,85.83
2022-12-07T02:41:42.470Z,85.80
2022-12-07T02:43:59.662Z,85.88
2022-12-07T02:46:17.875Z,85.96
2022-12-07T02:48:32.696Z,85.98
2022-12-07T02:50:48.636Z,86.12
2022-12-07T02:53:02.209Z,86.31
2022-12-07T02:55:17.548Z,86.19
2022-12-07T02:57:46.324Z,86.33
2022-12-07T03:00:09.386Z,86.14
2022-12-07T03:02:30.358Z,86.35
2022-12-07T03:04:51.053Z,86.23
2022-12-07T03:07:10.199Z,86.24
2022-12-07T03:09:31.766Z,86.30
2022-12-07T03:11:53.276Z,86.38
2022-12-07T03:14:16.591Z,86.45
2022-12-07T03:16:34.742Z,86.54
2022-12-07T03:18:54.462Z,86.63
2022-12-07T03:21:11.333Z,86.33
2022-12-07T03:23:27.108Z,86.39
2022-12-07T03:25:44.747Z,86.41
2022-12-07T03:28:02.977Z,86.49
2022-12-07T03:30:21.639Z,86.38
2022-12-07T03:32:39.794Z,86.55
2022-12-07T03:35:01.350Z,86.44
2022-12-07T03:37:20.350Z,86.48
2022-12-07T03:39:38.688Z,86.46
2022-12-07T03:41:53.123Z,86.48
2022-12-07T03:44:06.661Z,86.59
2022-12-07T03:46:32.513Z,86.62
2022-12-07T03:48:54.059Z,86.75
2022-12-07T03:51:11.825Z,86.89
2022-12-07T03:53:29.294Z,86.90
2022-12-07T03:55:46.208Z,86.80
2022-12-07T03:58:03.184Z,86.78
2022-12-07T04:00:18.151Z,86.92
2022-12-07T04:02:33.160Z,86.85
2022-12-07T04:04:47.494Z,86.93
2022-12-07T04:07:00.829Z,86.76
2022-12-07T04:09:14.002Z,86.96
2022-12-07T04:11:27.412Z,86.87
2022-12-07T04:13:53.454Z,86.98
2022-12-07T04:16:06.853Z,86.85
2022-12-07T04:18:19.995Z,86.81
2022-12-07T04:20:33.336Z,86.78
2022-12-07T04:22:46.646Z,86.82
2022-12-07T04:25:00.023Z,86.87
2022-12-07T04:27:13.500Z,86.70
2022-12-07T04:29:27.133Z,86.72
2022-12-07T04:31:40.879Z,86.70
2022-12-07T04:33:54.301Z,86.77
2022-12-07T04:36:07.664Z,86.86
2022-12-07T04:38:20.885Z,86.82
2022-12-07T04:40:34.069Z,86.84
2022-12-07T04:42:47.264Z,86.92
2022-12-07T04:45:00.499Z,86.89
2022-12-07T04:47:13.918Z,86.83
2022-12-07T04:49:27.948Z,86.96
2022-12-07T04:51:41.397Z,86.97
2022-12-07T04:53:55.211Z,86.95
2022-12-07T04:56:08.919Z,86.96
2022-12-07T04:58:22.188Z,86.85
2022-12-07T05:00:35.533Z,86.89
2022-12-07T05:02:48.918Z,86.93
2022-12-07T05:05:02.604Z,87.07
2022-12-07T05:07:16.066Z,87.15
2022-12-07T05:09:29.485Z,87.31
2022-12-07T05:11:42.914Z,87.24
2022-12-07T05:13:56.268Z,87.36
2022-12-07T05:16:10.095Z,87.35
2022-12-07T05:18:23.672Z,87.40
2022-12-07T05:20:42.221Z,87.22
2022-12-07T05:22:55.983Z,87.24
2022-12-07T05:25:09.616Z,87.23
2022-12-07T05:27:22.908Z,87.38
2022-12-07T05:29:36.409Z,87.20
2022-12-07T05:31:50.098Z,87.22
2022-12-07T05:34:03.435Z,87.30
2022-12-07T05:36:16.745Z,87.24
2022-12-07T05:38:29.952Z,87.31
2022-12-07T05:40:43.511Z,87.35
2022-12-07T05:42:59.975Z,87.21
2022-12-07T05:45:17.813Z,87.28
2022-12-07T05:47:31.487Z,87.44
2022-12-07T05:49:44.765Z,87.29
2022-12-07T05:51:57.973Z,87.38
2022-12-07T05:54:11.286Z,87.28
2022-12-07T05:56:24.900Z,87.38
2022-12-07T05:58:54.780Z,87.33
2022-12-07T06:01:08.525Z,87.43
2022-12-07T06:03:21.969Z,87.36
2022-12-07T06:05:35.373Z,87.42
2022-12-07T06:07:48.772Z,87.36
2022-12-07T06:10:02.561Z,87.57
2022-12-07T06:12:33.562Z,87.48
2022-12-07T06:14:46.861Z,87.48
2022-12-07T06:17:00.411Z,87.41
2022-12-07T06:19:13.820Z,87.41
2022-12-07T06:21:27.922Z,87.53
2022-12-07T06:23:41.129Z,87.56
2022-12-07T06:25:54.664Z,87.55
2022-12-07T06:28:07.794Z,87.51
2022-12-07T06:30:21.411Z,87.33
2022-12-07T06:32:34.552Z,87.38
2022-12-07T06:34:48.859Z,87.41
2022-12-07T06:37:02.188Z,87.34
2022-12-07T06:39:15.953Z,87.15
2022-12-07T06:41:29.247Z,87.15
2022-12-07T06:43:42.526Z,87.10
2022-12-07T06:45:55.832Z,87.00
2022-12-07T06:48:09.663Z,87.11
2022-12-07T06:50:23.299Z,87.07
2022-12-07T06:52:37.473Z,87.18
2022-12-07T06:54:50.699Z,87.21
2022-12-07T06:57:04.372Z,87.15
2022-12-07T06:59:17.788Z,87.25
2022-12-07T07:01:30.972Z,87.38
2022-12-07T07:03:44.085Z,87.15
2022-12-07T07:05:57.268Z,87.14
2022-12-07T07:08:25.832Z,87.21
2022-12-07T07:10:39.102Z,87.22
2022-12-07T07:12:55.909Z,87.21
2022-12-07T07:15:11.805Z,87.27
2022-12-07T07:17:25.539Z,87.25
2022-12-07T07:19:39.691Z,87.35
2022-12-07T07:21:52.916Z,87.34
2022-12-07T07:24:06.121Z,87.36
2022-12-07T07:26:23.100Z,87.30
2022-12-07T07:28:36.709Z,87.40
2022-12-07T07:30:50.310Z,87.32
2022-12-07T07:33:06.137Z,87.34
2022-12-07T07:35:19.493Z,87.49
2022-12-07T07:37:33.141Z,87.61
2022-12-07T07:39:46.300Z,87.58
2022-12-07T07:41:59.426Z,87.57
2022-12-07T07:44:13.832Z,87.67
2022-12-07T07:46:27.339Z,87.88
2022-12-07T07:48:40.582Z,87.76
2022-12-07T07:50:53.799Z,87.75
2022-12-07T07:53:07.169Z,87.87
2022-12-07T07:55:20.434Z,87.77
2022-12-07T07:57:33.763Z,87.86
2022-12-07T07:59:46.987Z,88.02
2022-12-07T08:02:00.191Z,87.92
2022-12-07T08:04:13.636Z,87.85
2022-12-07T08:06:32.017Z,87.79
2022-12-07T08:08:45.809Z,87.87
2022-12-07T08:11:02.602Z,88.00
2022-12-07T08:13:16.114Z,87.98
2022-12-07T08:15:29.345Z,88.05
2022-12-07T08:17:42.635Z,87.96
2022-12-07T08:19:55.886Z,87.91
2022-12-07T08:22:09.358Z,87.85
2022-12-07T08:24:23.308Z,88.02
2022-12-07T08:26:36.579Z,87.87
2022-12-07T08:28:49.780Z,88.03
2022-12-07T08:31:09.156Z,87.91
2022-12-07T08:33:24.470Z,87.65
2022-12-07T08:35:40.097Z,87.78
2022-12-07T08:37:53.539Z,87.87
2022-12-07T08:40:07.015Z,87.77
2022-12-07T08:42:20.442Z,87.87
2022-12-07T08:44:33.979Z,88.13
2022-12-07T08:46:50.642Z,88.05
2022-12-07T08:49:08.107Z,88.10
2022-12-07T08:51:21.720Z,87.90
2022-12-07T08:53:35.645Z,88.02
2022-12-07T08:55:49.562Z,87.99
2022-12-07T08:58:05.237Z,88.08
2022-12-07T09:00:20.891Z,88.08
2022-12-07T09:02:34.755Z,87.98
2022-12-07T09:04:48.042Z,87.90
2022-12-07T09:07:01.581Z,88.04
2022-12-07T09:09:16.282Z,88.11
2022-12-07T09:11:29.806Z,88.20
2022-12-07T09:13:43.045Z,88.11
2022-12-07T09:15:56.237Z,87.96
2022-12-07T09:18:09.469Z,88.03
2022-12-07T09:20:27.561Z,88.13
2022-12-07T09:22:41.548Z,88.12
2022-12-07T09:24:54.878Z,88.08
2022-12-07T09:27:08.233Z,88.12
2022-12-07T09:29:21.760Z,88.21
2022-12-07T09:31:35.214Z,88.08
2022-12-07T09:33:48.860Z,87.85
2022-12-07T09:36:02.146Z,87.99
2022-12-07T09:38:15.386Z,88.02
2022-12-07T09:40:29.797Z,88.04
2022-12-07T09:42:46.048Z,88.00
2022-12-07T09:45:00.259Z,87.91
2022-12-07T09:47:15.727Z,87.80
2022-12-07T09:49:32.700Z,87.82
2022-12-07T09:51:46.168Z,87.74
2022-12-07T09:54:01.008Z,87.68
2022-12-07T09:56:20.162Z,87.78
2022-12-07T09:58:35.871Z,87.75
2022-12-07T10:00:49.181Z,87.76
2022-12-07T10:03:04.317Z,87.85
2022-12-07T10:05:24.409Z,87.97
2022-12-07T10:07:39.087Z,88.02
2022-12-07T10:09:52.752Z,87.95
2022-12-07T10:12:13.077Z,88.04
2022-12-07T10:14:44.228Z,88.00
2022-12-07T10:16:59.791Z,87.97
2022-12-07T10:19:35.665Z,88.05
2022-12-07T10:22:08.021Z,87.79
2022-12-07T10:24:22.649Z,87.79
2022-12-07T10:26:38.175Z,87.80
2022-12-07T10:28:51.639Z,87.81
2022-12-07T10:31:07.898Z,87.95
2022-12-07T10:33:36.183Z,87.81
2022-12-07T10:35:50.122Z,87.97
2022-12-07T10:38:05.191Z,87.83
2022-12-07T10:40:35.826Z,87.94
2022-12-07T10:43:04.582Z,88.08
2022-12-07T10:45:22.410Z,88.15
2022-12-07T10:47:42.495Z,88.15
2022-12-07T10:50:24.259Z,88.01
2022-12-07T10:52:55.609Z,87.97
2022-12-07T10:55:24.571Z,88.09
2022-12-07T10:57:52.161Z,87.79
2022-12-07T11:00:20.381Z,87.67
2022-12-07T11:02:50.042Z,87.53
2022-12-07T11:05:15.636Z,87.78
2022-12-07T11:07:42.456Z,87.87
2022-12-07T11:10:11.997Z,87.76
2022-12-07T11:12:38.883Z,87.72
2022-12-07T11:15:00.391Z,87.79
2022-12-07T11:17:19.980Z,87.90
2022-12-07T11:19:59.028Z,87.91
2022-12-07T11:22:21.002Z,87.94
2022-12-07T11:24:45.586Z,88.14
2022-12-07T11:27:14.509Z,87.94
2022-12-07T11:29:49.085Z,88.02
2022-12-07T11:32:13.050Z,88.04
2022-12-07T11:34:35.193Z,88.11
2022-12-07T11:36:52.580Z,88.15
2022-12-07T11:39:09.496Z,88.21
2022-12-07T11:41:31.628Z,88.29
2022-12-07T11:43:58.202Z,88.36
2022-12-07T11:46:17.485Z,88.47
2022-12-07T11:48:38.635Z,88.47
2022-12-07T11:50:56.279Z,88.38
2022-12-07T11:53:15.270Z,88.50
2022-12-07T11:55:33.993Z,88.53
2022-12-07T11:57:52.251Z,88.69
2022-12-07T12:00:09.760Z,88.69
2022-12-07T12:02:26.336Z,88.70
2022-12-07T12:04:57.500Z,88.67
2022-12-07T12:09:58.192Z,88.77
2022-12-07T12:15:28.159Z,88.88
2022-12-07T12:18:01.385Z,88.91
2022-12-07T12:20:28.494Z,89.00
2022-12-07T12:22:45.995Z,89.07
2022-12-07T12:25:01.399Z,89.20
2022-12-07T12:27:23.470Z,89.19
2022-12-07T12:29:40.869Z,89.25
2022-12-07T12:32:09.246Z,89.20
2022-12-07T12:34:48.464Z,89.13
2022-12-07T12:37:03.885Z,89.28
2022-12-07T12:39:21.207Z,89.10
2022-12-07T12:42:10.325Z,89.15
2022-12-07T12:45:08.243Z,89.04
2022-12-07T12:47:57.054Z,89.43
2022-12-07T12:50:28.496Z,89.63
2022-12-07T12:53:00.095Z,89.57
2022-12-07T12:55:23.561Z,89.28
2022-12-07T12:57:37.466Z,89.16
2022-12-07T13:00:05.834Z,89.14
2022-12-07T13:02:28.860Z,89.30
2022-12-07T13:05:00.566Z,89.32
2022-12-07T13:07:39.365Z,89.39
2022-12-07T13:09:53.203Z,89.24
2022-12-07T13:12:10.029Z,89.31
2022-12-07T13:14:47.154Z,89.35
2022-12-07T13:17:00.714Z,89.35
2022-12-07T13:19:42.169Z,89.37
2022-12-07T13:21:55.509Z,89.33
2022-12-07T13:24:14.693Z,89.52
2022-12-07T13:26:39.954Z,89.48
2022-12-07T13:28:56.410Z,89.48
2022-12-07T13:31:34.221Z,89.64
2022-12-07T13:33:50.643Z,89.65
2022-12-07T13:36:04.290Z,89.66
2022-12-07T13:38:30.545Z,89.48
2022-12-07T13:40:44.074Z,89.43
2022-12-07T13:43:04.782Z,89.43
2022-12-07T13:45:50.492Z,89.32
2022-12-07T13:48:06.347Z,89.56
2022-12-07T13:50:32.877Z,89.40
2022-12-07T13:52:51.128Z,89.36
2022-12-07T13:55:13.538Z,89.24
2022-12-07T13:57:27.257Z,89.36
2022-12-07T13:59:41.489Z,89.42
2022-12-07T14:01:55.709Z,89.53
2022-12-07T14:04:33.815Z,89.58
2022-12-07T14:07:10.335Z,89.39
2022-12-07T14:09:28.604Z,89.47
2022-12-07T14:11:42.080Z,89.63
2022-12-07T14:14:05.437Z,89.71
2022-12-07T14:16:31.872Z,89.61
2022-12-07T14:18:46.823Z,89.63
2022-12-07T14:21:10.803Z,89.70
2022-12-07T14:23:32.937Z,89.55
2022-12-07T14:25:56.292Z,89.54
2022-12-07T14:28:12.701Z,89.58
2022-12-07T14:30:27.161Z,89.58
2022-12-07T14:32:45.277Z,89.59
2022-12-07T14:35:14.431Z,89.64
2022-12-07T14:37:28.022Z,89.64
2022-12-07T14:39:41.202Z,89.55
2022-12-07T14:41:57.721Z,89.70
2022-12-07T14:44:26.881Z,89.57
2022-12-07T14:46:41.903Z,89.70
2022-12-07T14:54:03.444Z,89.63
2022-12-07T14:56:16.882Z,89.78
2022-12-07T14:58:30.159Z,89.73
2022-12-07T15:00:43.486Z,89.92
2022-12-07T15:02:56.786Z,89.80
2022-12-07T15:05:15.705Z,89.82
2022-12-07T15:07:30.024Z,89.76
2022-12-07T15:09:43.557Z,89.85
2022-12-07T15:11:57.138Z,90.08
2022-12-07T15:14:13.689Z,89.91
2022-12-07T15:16:28.792Z,89.91
2022-12-07T15:18:53.252Z,90.19
2022-12-07T15:21:21.162Z,90.10
2022-12-07T15:23:35.152Z,89.91
2022-12-07T15:25:51.102Z,89.78
2022-12-07T15:28:04.547Z,89.61
2022-12-07T15:30:18.621Z,89.69
2022-12-07T15:32:32.046Z,89.45
2022-12-07T15:34:45.614Z,89.51
2022-12-07T15:36:59.042Z,89.65
2022-12-07T15:39:14.548Z,89.60
2022-12-07T15:41:28.215Z,89.67
2022-12-07T15:43:57.936Z,89.69
2022-12-07T15:46:11.689Z,89.78
2022-12-07T15:48:29.160Z,89.87
2022-12-07T15:50:42.818Z,89.85
2022-12-07T15:52:56.342Z,89.77
2022-12-07T15:55:10.315Z,89.81
2022-12-07T15:57:25.538Z,89.90
2022-12-07T15:59:39.193Z,89.93
2022-12-07T16:01:52.819Z,89.88
2022-12-07T16:04:06.606Z,89.98
2022-12-07T16:06:22.640Z,90.11
2022-12-07T16:08:36.782Z,90.14
2022-12-07T16:10:50.324Z,90.00
2022-12-07T16:13:04.133Z,89.97
2022-12-07T16:15:22.957Z,90.14
2022-12-07T16:17:37.600Z,90.14
2022-12-07T16:19:50.888Z,90.17
2022-12-07T16:22:04.327Z,90.25
2022-12-07T16:24:18.359Z,90.20
2022-12-07T16:26:31.669Z,90.41
2022-12-07T16:28:45.914Z,90.44
2022-12-07T16:31:07.634Z,90.46
2022-12-07T16:33:21.149Z,90.29
2022-12-07T16:35:34.700Z,90.31
2022-12-07T16:37:48.939Z,90.48
2022-12-07T16:40:02.243Z,90.54
2022-12-07T16:42:15.660Z,90.50
2022-12-07T16:44:29.307Z,90.51
2022-12-07T16:46:43.290Z,90.48
2022-12-07T16:48:56.729Z,90.54
2022-12-07T16:51:11.644Z,90.56
2022-12-07T16:53:25.721Z,90.42
2022-12-07T16:55:41.999Z,90.43
2022-12-07T16:57:55.336Z,90.39
2022-12-07T17:00:10.120Z,90.24
2022-12-07T17:02:23.495Z,90.23
2022-12-07T17:04:36.962Z,90.38
2022-12-07T17:06:50.170Z,90.10
2022-12-07T17:09:03.715Z,90.18
2022-12-07T17:11:22.008Z,90.10
2022-12-07T17:13:51.873Z,90.02
2022-12-07T17:16:07.703Z,90.10
2022-12-07T17:18:20.984Z,90.05
2022-12-07T17:20:34.697Z,89.98
2022-12-07T17:22:47.830Z,89.92
2022-12-07T17:25:01.537Z,89.89
2022-12-07T17:27:15.103Z,90.03
2022-12-07T17:29:28.411Z,89.86
2022-12-07T17:31:46.399Z,89.83
2022-12-07T17:34:02.702Z,89.93
2022-12-07T17:36:20.903Z,90.03
2022-12-07T17:38:35.005Z,89.96
2022-12-07T17:40:48.720Z,89.88
2022-12-07T17:43:02.087Z,90.06
2022-12-07T17:45:17.530Z,89.87
2022-12-07T17:47:31.103Z,90.00
2022-12-07T17:49:44.343Z,90.14
2022-12-07T17:52:14.079Z,90.02
2022-12-07T17:54:27.414Z,90.08
2022-12-07T17:56:40.744Z,89.98
2022-12-07T17:58:54.049Z,90.16
2022-12-07T18:01:12.215Z,90.09
2022-12-07T18:03:25.867Z,89.94
2022-12-07T18:05:39.117Z,89.93
2022-12-07T18:07:53.784Z,89.89
2022-12-07T18:10:08.631Z,89.89
2022-12-07T18:12:22.293Z,89.42
2022-12-07T18:14:35.909Z,88.69
2022-12-07T18:16:50.955Z,88.93
2022-12-07T18:19:06.162Z,88.79
2022-12-07T18:21:21.220Z,88.53
2022-12-07T18:23:35.051Z,88.27
2022-12-07T18:25:53.543Z,88.10
2022-12-07T18:28:06.965Z,87.73
2022-12-07T18:30:35.836Z,87.52
2022-12-07T18:32:55.648Z,87.38
2022-12-07T18:35:09.436Z,87.23
2022-12-07T18:37:22.779Z,86.65
2022-12-07T18:39:36.148Z,86.26
2022-12-07T18:41:50.315Z,85.81
2022-12-07T18:44:03.805Z,85.48
2022-12-07T18:46:21.666Z,85.43
2022-12-07T18:48:36.110Z,85.56
2022-12-07T18:50:50.300Z,84.91
2022-12-07T18:53:06.271Z,84.72
2022-12-07T18:55:22.771Z,84.68
2022-12-07T18:57:38.139Z,84.41
2022-12-07T18:59:51.312Z,84.18
2022-12-07T19:02:04.707Z,83.92
2022-12-07T19:04:18.351Z,83.61
2022-12-07T19:06:31.741Z,83.31
2022-12-07T19:08:45.026Z,83.37
2022-12-07T19:11:23.389Z,83.15
2022-12-07T19:13:37.232Z,83.14
2022-12-07T19:15:52.807Z,82.84
2022-12-07T19:18:06.138Z,82.96
2022-12-07T19:20:22.031Z,82.86
2022-12-07T19:22:35.388Z,82.98
2022-12-07T19:24:51.509Z,82.83
2022-12-07T19:27:04.969Z,82.94
2022-12-07T19:29:18.173Z,82.93
2022-12-07T19:31:31.494Z,83.22
2022-12-07T19:33:45.255Z,83.46
2022-12-07T19:35:58.478Z,83.57
2022-12-07T19:38:11.796Z,83.51
2022-12-07T19:40:25.202Z,83.60
2022-12-07T19:42:38.861Z,83.70
2022-12-07T19:44:52.489Z,83.48
2022-12-07T19:47:08.160Z,83.23
2022-12-07T19:49:21.908Z,82.94
2022-12-07T19:51:36.138Z,82.79
2022-12-07T19:53:49.366Z,82.43
2022-12-07T19:56:03.030Z,82.26
2022-12-07T19:58:16.343Z,82.24
2022-12-07T20:00:29.831Z,82.33
2022-12-07T20:02:43.126Z,82.10
2022-12-07T20:04:58.637Z,82.01
2022-12-07T20:07:13.936Z,81.64
2022-12-07T20:09:27.948Z,82.03
2022-12-07T20:11:58.494Z,81.59
2022-12-07T20:14:13.129Z,81.11
2022-12-07T20:16:27.328Z,80.67
2022-12-07T20:18:40.819Z,80.20
2022-12-07T20:21:01.738Z,80.38
2022-12-07T20:23:15.149Z,80.38
2022-12-07T20:25:28.576Z,80.60
2022-12-07T20:27:42.038Z,80.94
2022-12-07T20:29:55.834Z,80.98
2022-12-07T20:32:09.663Z,80.99
2022-12-07T20:34:23.527Z,80.96
2022-12-07T20:36:36.948Z,80.67
2022-12-07T20:38:50.771Z,80.69
2022-12-07T20:41:07.529Z,81.12
2022-12-07T20:43:20.941Z,81.27
2022-12-07T20:45:34.771Z,81.37
2022-12-07T20:47:48.071Z,81.13
2022-12-07T20:50:01.411Z,81.16
2022-12-07T20:52:14.871Z,80.63
2022-12-07T20:54:28.283Z,80.44
2022-12-07T20:56:41.738Z,80.24
2022-12-07T20:58:55.306Z,80.03
2022-12-07T21:01:09.160Z,79.94
2022-12-07T21:03:26.393Z,79.82
2022-12-07T21:05:40.341Z,80.03
2022-12-07T21:07:53.855Z,80.19
2022-12-07T21:10:07.624Z,79.95
2022-12-07T21:12:21.049Z,80.03
2022-12-07T21:14:34.655Z,80.04
2022-12-07T21:16:48.036Z,80.00
2022-12-07T21:19:03.668Z,79.68
2022-12-07T21:21:17.950Z,78.93
2022-12-07T21:23:31.169Z,79.26
2022-12-07T21:25:44.436Z,79.35
2022-12-07T21:27:57.722Z,79.36
2022-12-07T21:30:12.199Z,78.96
2022-12-07T21:32:25.514Z,78.79
2022-12-07T21:34:38.967Z,78.64
2022-12-07T21:36:52.238Z,78.35
2022-12-07T21:39:05.795Z,78.05
2022-12-07T21:41:21.871Z,77.85
2022-12-07T21:43:35.133Z,77.32
2022-12-07T21:45:53.374Z,76.22
2022-12-07T21:48:06.922Z,76.34
2022-12-07T21:50:20.364Z,76.80
2022-12-07T21:52:33.613Z,75.96
2022-12-07T21:54:47.048Z,76.42
2022-12-07T21:57:00.238Z,76.45
2022-12-07T21:59:16.523Z,76.38
2022-12-07T22:01:35.656Z,76.44
2022-12-07T22:03:49.214Z,76.35
2022-12-07T22:06:08.437Z,76.55
2022-12-07T22:08:22.037Z,76.55
2022-12-07T22:10:35.543Z,76.66
2022-12-07T22:12:48.706Z,75.57
2022-12-07T22:15:11.616Z,75.94
2022-12-07T22:17:24.920Z,76.25
2022-12-07T22:19:38.418Z,76.11
2022-12-07T22:21:51.729Z,76.24
2022-12-07T22:24:04.969Z,75.85
2022-12-07T22:26:24.216Z,75.95
2022-12-07T22:28:40.549Z,75.76
2022-12-07T22:30:53.826Z,75.75
2022-12-07T22:33:07.158Z,75.90
2022-12-07T22:35:20.699Z,75.72
2022-12-07T22:37:35.530Z,76.00
2022-12-07T22:39:49.834Z,76.02
2022-12-07T22:42:03.126Z,75.60
2022-12-07T22:44:17.223Z,75.74
2022-12-07T22:46:31.117Z,75.83
2022-12-07T22:48:44.555Z,75.75
2022-12-07T22:50:58.473Z,75.58
2022-12-07T22:53:11.943Z,75.74
2022-12-07T22:55:25.117Z,75.78
2022-12-07T22:57:38.299Z,75.81
2022-12-07T22:59:51.635Z,74.76
2022-12-07T23:02:04.926Z,75.28
2022-12-07T23:04:18.897Z,75.56
2022-12-07T23:06:34.410Z,75.70
2022-12-07T23:08:48.073Z,75.43
2022-12-07T23:11:01.327Z,75.41
2022-12-07T23:13:30.144Z,74.93
2022-12-07T23:15:43.932Z,74.80
2022-12-07T23:17:57.222Z,75.00
2022-12-07T23:20:12.416Z,75.21
2022-12-07T23:22:25.638Z,75.33
2022-12-07T23:24:38.867Z,75.39
2022-12-07T23:26:52.520Z,75.38
2022-12-07T23:29:05.746Z,75.54
2022-12-07T23:31:21.014Z,75.33
2022-12-07T23:33:34.387Z,75.27
2022-12-07T23:35:47.746Z,75.38
2022-12-07T23:38:00.987Z,75.68
2022-12-07T23:40:15.626Z,75.62
2022-12-07T23:42:28.816Z,75.80
2022-12-07T23:44:42.198Z,75.83
2022-12-07T23:46:55.497Z,76.00
2022-12-07T23:49:10.430Z,75.85
2022-12-07T23:51:23.881Z,75.72
2022-12-07T23:53:39.162Z,75.40
2022-12-07T23:55:53.356Z,75.65
2022-12-07T23:58:06.800Z,75.64
